sensor_id;sensor_type;location;lat;lon;timestamp;P1;durP1;ratioP1;P2;durP2;ratioP2
22144;SDS011;11238;48.730;11.566;2022-07-03T00:01:05;4.32;;;3.10;;
22144;SDS011;11238;48.730;11.566;2022-07-03T00:03:32;3.65;;;3.25;;
22144;SDS011;11238;48.730;11.566;2022-07-03T00:06:07;3.28;;;2.78;;
22144;SDS011;11238;48.730;11.566;2022-07-03T00:08:47;6.70;;;3.00;;
22144;SDS011;11238;48.730;11.566;2022-07-03T00:11:47;4.43;;;2.90;;
22144;SDS011;11238;48.730;11.566;2022-07-03T00:14:12;8.48;;;3.10;;
22144;SDS011;11238;48.730;11.566;2022-07-03T00:16:41;3.15;;;2.78;;
22144;SDS011;11238;48.730;11.566;2022-07-03T00:19:07;4.18;;;2.70;;
22144;SDS011;11238;48.730;11.566;2022-07-03T00:27:47;3.53;;;3.15;;
22144;SDS011;11238;48.730;11.566;2022-07-03T00:30:15;4.25;;;2.85;;
22144;SDS011;11238;48.730;11.566;2022-07-03T00:32:41;5.15;;;3.20;;
22144;SDS011;11238;48.730;11.566;2022-07-03T00:35:08;3.40;;;2.80;;
22144;SDS011;11238;48.730;11.566;2022-07-03T00:37:56;4.57;;;3.17;;
22144;SDS011;11238;48.730;11.566;2022-07-03T00:40:22;5.47;;;3.05;;
22144;SDS011;11238;48.730;11.566;2022-07-03T00:42:49;3.80;;;3.20;;
22144;SDS011;11238;48.730;11.566;2022-07-03T00:45:17;5.88;;;3.10;;
22144;SDS011;11238;48.730;11.566;2022-07-03T00:47:48;3.10;;;2.80;;
22144;SDS011;11238;48.730;11.566;2022-07-03T00:50:14;5.90;;;3.03;;
22144;SDS011;11238;48.730;11.566;2022-07-03T00:52:45;6.18;;;3.40;;
22144;SDS011;11238;48.730;11.566;2022-07-03T00:55:17;3.47;;;3.00;;
22144;SDS011;11238;48.730;11.566;2022-07-03T00:57:45;3.63;;;3.13;;
22144;SDS011;11238;48.730;11.566;2022-07-03T01:00:17;6.68;;;3.10;;
22144;SDS011;11238;48.730;11.566;2022-07-03T01:08:16;3.88;;;3.30;;
22144;SDS011;11238;48.730;11.566;2022-07-03T01:17:12;4.25;;;3.55;;
22144;SDS011;11238;48.730;11.566;2022-07-03T01:19:56;5.95;;;3.72;;
22144;SDS011;11238;48.730;11.566;2022-07-03T01:22:34;4.63;;;3.33;;
22144;SDS011;11238;48.730;11.566;2022-07-03T01:27:35;4.07;;;3.15;;
22144;SDS011;11238;48.730;11.566;2022-07-03T01:30:15;5.35;;;3.28;;
22144;SDS011;11238;48.730;11.566;2022-07-03T01:32:44;4.10;;;3.30;;
22144;SDS011;11238;48.730;11.566;2022-07-03T01:35:22;5.72;;;3.55;;
22144;SDS011;11238;48.730;11.566;2022-07-03T01:37:56;5.20;;;3.45;;
22144;SDS011;11238;48.730;11.566;2022-07-03T01:40:29;4.90;;;3.50;;
22144;SDS011;11238;48.730;11.566;2022-07-03T01:46:18;3.90;;;3.50;;
22144;SDS011;11238;48.730;11.566;2022-07-03T01:48:46;3.60;;;3.00;;
22144;SDS011;11238;48.730;11.566;2022-07-03T01:51:14;3.60;;;3.22;;
22144;SDS011;11238;48.730;11.566;2022-07-03T01:53:43;4.32;;;3.15;;
22144;SDS011;11238;48.730;11.566;2022-07-03T01:56:17;3.75;;;3.35;;
22144;SDS011;11238;48.730;11.566;2022-07-03T01:58:48;4.95;;;3.53;;
22144;SDS011;11238;48.730;11.566;2022-07-03T02:01:18;3.80;;;3.35;;
22144;SDS011;11238;48.730;11.566;2022-07-03T02:03:51;4.20;;;3.40;;
22144;SDS011;11238;48.730;11.566;2022-07-03T02:06:34;3.97;;;3.58;;
22144;SDS011;11238;48.730;11.566;2022-07-03T02:09:07;4.40;;;3.17;;
22144;SDS011;11238;48.730;11.566;2022-07-03T02:11:35;3.40;;;2.88;;
22144;SDS011;11238;48.730;11.566;2022-07-03T02:14:13;3.60;;;3.17;;
22144;SDS011;11238;48.730;11.566;2022-07-03T02:16:56;4.15;;;3.75;;
22144;SDS011;11238;48.730;11.566;2022-07-03T02:19:42;5.05;;;3.53;;
22144;SDS011;11238;48.730;11.566;2022-07-03T02:22:29;4.55;;;3.63;;
22144;SDS011;11238;48.730;11.566;2022-07-03T02:25:01;3.95;;;3.55;;
22144;SDS011;11238;48.730;11.566;2022-07-03T02:27:31;5.75;;;3.70;;
22144;SDS011;11238;48.730;11.566;2022-07-03T02:30:16;4.25;;;3.53;;
22144;SDS011;11238;48.730;11.566;2022-07-03T02:32:47;4.53;;;3.35;;
22144;SDS011;11238;48.730;11.566;2022-07-03T02:35:17;6.85;;;3.72;;
22144;SDS011;11238;48.730;11.566;2022-07-03T02:46:05;6.45;;;3.78;;
22144;SDS011;11238;48.730;11.566;2022-07-03T02:48:56;4.13;;;3.70;;
22144;SDS011;11238;48.730;11.566;2022-07-03T02:51:35;3.75;;;3.45;;
22144;SDS011;11238;48.730;11.566;2022-07-03T02:54:04;5.30;;;3.38;;
22144;SDS011;11238;48.730;11.566;2022-07-03T02:56:43;5.10;;;3.67;;
22144;SDS011;11238;48.730;11.566;2022-07-03T03:02:42;4.03;;;3.53;;
22144;SDS011;11238;48.730;11.566;2022-07-03T03:05:21;4.50;;;3.70;;
22144;SDS011;11238;48.730;11.566;2022-07-03T03:11:17;4.47;;;3.67;;
22144;SDS011;11238;48.730;11.566;2022-07-03T03:13:50;9.05;;;4.00;;
22144;SDS011;11238;48.730;11.566;2022-07-03T03:16:21;5.18;;;3.75;;
22144;SDS011;11238;48.730;11.566;2022-07-03T03:18:47;5.20;;;3.25;;
22144;SDS011;11238;48.730;11.566;2022-07-03T03:21:15;4.20;;;3.78;;
22144;SDS011;11238;48.730;11.566;2022-07-03T03:23:49;3.47;;;3.17;;
22144;SDS011;11238;48.730;11.566;2022-07-03T03:26:21;4.93;;;3.42;;
22144;SDS011;11238;48.730;11.566;2022-07-03T03:28:51;6.70;;;3.47;;
22144;SDS011;11238;48.730;11.566;2022-07-03T03:31:18;4.13;;;3.70;;
22144;SDS011;11238;48.730;11.566;2022-07-03T03:33:48;4.43;;;3.20;;
22144;SDS011;11238;48.730;11.566;2022-07-03T03:36:18;7.78;;;3.70;;
22144;SDS011;11238;48.730;11.566;2022-07-03T03:38:45;5.55;;;3.30;;
22144;SDS011;11238;48.730;11.566;2022-07-03T03:41:12;7.90;;;3.40;;
22144;SDS011;11238;48.730;11.566;2022-07-03T03:43:39;6.80;;;3.28;;
22144;SDS011;11238;48.730;11.566;2022-07-03T03:46:04;4.05;;;3.25;;
22144;SDS011;11238;48.730;11.566;2022-07-03T03:48:31;5.63;;;2.92;;
22144;SDS011;11238;48.730;11.566;2022-07-03T03:50:59;4.28;;;3.35;;
22144;SDS011;11238;48.730;11.566;2022-07-03T03:53:25;3.67;;;3.30;;
22144;SDS011;11238;48.730;11.566;2022-07-03T03:56:02;3.70;;;3.30;;
22144;SDS011;11238;48.730;11.566;2022-07-03T03:58:35;4.10;;;3.17;;
22144;SDS011;11238;48.730;11.566;2022-07-03T04:01:03;5.07;;;3.58;;
22144;SDS011;11238;48.730;11.566;2022-07-03T04:03:31;6.93;;;3.50;;
22144;SDS011;11238;48.730;11.566;2022-07-03T04:05:58;5.13;;;3.20;;
22144;SDS011;11238;48.730;11.566;2022-07-03T04:08:24;4.90;;;3.00;;
22144;SDS011;11238;48.730;11.566;2022-07-03T04:10:52;4.53;;;2.97;;
22144;SDS011;11238;48.730;11.566;2022-07-03T04:13:18;6.57;;;2.88;;
22144;SDS011;11238;48.730;11.566;2022-07-03T04:15:50;4.35;;;2.92;;
22144;SDS011;11238;48.730;11.566;2022-07-03T04:18:17;4.63;;;3.08;;
22144;SDS011;11238;48.730;11.566;2022-07-03T04:20:44;3.85;;;3.00;;
22144;SDS011;11238;48.730;11.566;2022-07-03T04:23:10;7.10;;;3.28;;
22144;SDS011;11238;48.730;11.566;2022-07-03T04:25:36;4.75;;;3.47;;
22144;SDS011;11238;48.730;11.566;2022-07-03T04:28:02;4.03;;;3.40;;
22144;SDS011;11238;48.730;11.566;2022-07-03T04:30:28;3.97;;;3.50;;
22144;SDS011;11238;48.730;11.566;2022-07-03T04:32:54;4.60;;;3.10;;
22144;SDS011;11238;48.730;11.566;2022-07-03T04:35:20;5.20;;;3.30;;
22144;SDS011;11238;48.730;11.566;2022-07-03T04:37:46;4.38;;;3.10;;
22144;SDS011;11238;48.730;11.566;2022-07-03T04:40:12;5.30;;;3.28;;
22144;SDS011;11238;48.730;11.566;2022-07-03T04:42:38;5.68;;;3.20;;
22144;SDS011;11238;48.730;11.566;2022-07-03T04:45:05;3.97;;;3.42;;
22144;SDS011;11238;48.730;11.566;2022-07-03T04:47:31;7.30;;;3.50;;
22144;SDS011;11238;48.730;11.566;2022-07-03T04:49:57;4.15;;;3.47;;
22144;SDS011;11238;48.730;11.566;2022-07-03T04:52:23;4.82;;;3.67;;
22144;SDS011;11238;48.730;11.566;2022-07-03T04:54:48;6.22;;;3.95;;
22144;SDS011;11238;48.730;11.566;2022-07-03T04:57:14;4.50;;;4.10;;
22144;SDS011;11238;48.730;11.566;2022-07-03T04:59:40;5.00;;;4.18;;
22144;SDS011;11238;48.730;11.566;2022-07-03T05:02:06;5.40;;;3.47;;
22144;SDS011;11238;48.730;11.566;2022-07-03T05:04:32;4.45;;;4.05;;
22144;SDS011;11238;48.730;11.566;2022-07-03T05:06:58;3.97;;;3.63;;
22144;SDS011;11238;48.730;11.566;2022-07-03T05:09:24;4.40;;;4.00;;
22144;SDS011;11238;48.730;11.566;2022-07-03T05:11:50;5.72;;;3.65;;
22144;SDS011;11238;48.730;11.566;2022-07-03T05:14:16;4.57;;;3.88;;
22144;SDS011;11238;48.730;11.566;2022-07-03T05:16:42;3.80;;;3.38;;
22144;SDS011;11238;48.730;11.566;2022-07-03T05:19:08;4.75;;;3.33;;
22144;SDS011;11238;48.730;11.566;2022-07-03T05:21:34;4.32;;;3.55;;
22144;SDS011;11238;48.730;11.566;2022-07-03T05:24:00;4.40;;;3.58;;
22144;SDS011;11238;48.730;11.566;2022-07-03T05:26:26;5.40;;;4.07;;
22144;SDS011;11238;48.730;11.566;2022-07-03T05:28:52;4.38;;;3.55;;
22144;SDS011;11238;48.730;11.566;2022-07-03T05:31:18;8.48;;;3.97;;
22144;SDS011;11238;48.730;11.566;2022-07-03T05:33:44;5.38;;;4.05;;
22144;SDS011;11238;48.730;11.566;2022-07-03T05:36:09;4.20;;;3.47;;
22144;SDS011;11238;48.730;11.566;2022-07-03T05:38:35;4.70;;;3.75;;
22144;SDS011;11238;48.730;11.566;2022-07-03T05:41:20;3.72;;;3.13;;
22144;SDS011;11238;48.730;11.566;2022-07-03T05:43:45;6.50;;;3.42;;
22144;SDS011;11238;48.730;11.566;2022-07-03T05:46:11;4.57;;;3.78;;
22144;SDS011;11238;48.730;11.566;2022-07-03T05:48:37;5.82;;;3.72;;
22144;SDS011;11238;48.730;11.566;2022-07-03T05:51:03;4.43;;;3.33;;
22144;SDS011;11238;48.730;11.566;2022-07-03T05:53:29;5.88;;;3.63;;
22144;SDS011;11238;48.730;11.566;2022-07-03T05:55:55;3.78;;;2.70;;
22144;SDS011;11238;48.730;11.566;2022-07-03T05:58:21;3.70;;;3.03;;
22144;SDS011;11238;48.730;11.566;2022-07-03T06:00:46;4.75;;;3.78;;
22144;SDS011;11238;48.730;11.566;2022-07-03T06:03:12;5.13;;;3.67;;
22144;SDS011;11238;48.730;11.566;2022-07-03T06:05:38;3.92;;;3.35;;
22144;SDS011;11238;48.730;11.566;2022-07-03T06:08:04;6.68;;;3.65;;
22144;SDS011;11238;48.730;11.566;2022-07-03T06:10:30;4.15;;;3.53;;
22144;SDS011;11238;48.730;11.566;2022-07-03T06:12:57;4.18;;;3.30;;
22144;SDS011;11238;48.730;11.566;2022-07-03T06:15:23;5.07;;;4.47;;
22144;SDS011;11238;48.730;11.566;2022-07-03T06:17:49;3.90;;;3.60;;
22144;SDS011;11238;48.730;11.566;2022-07-03T06:20:14;6.68;;;3.28;;
22144;SDS011;11238;48.730;11.566;2022-07-03T06:22:41;4.63;;;3.80;;
22144;SDS011;11238;48.730;11.566;2022-07-03T06:25:07;3.75;;;3.35;;
22144;SDS011;11238;48.730;11.566;2022-07-03T06:27:34;3.90;;;3.17;;
22144;SDS011;11238;48.730;11.566;2022-07-03T06:30:00;3.50;;;2.97;;
22144;SDS011;11238;48.730;11.566;2022-07-03T06:32:26;4.80;;;3.17;;
22144;SDS011;11238;48.730;11.566;2022-07-03T06:34:52;3.10;;;2.75;;
22144;SDS011;11238;48.730;11.566;2022-07-03T06:37:19;3.40;;;3.10;;
22144;SDS011;11238;48.730;11.566;2022-07-03T06:39:45;4.10;;;2.80;;
22144;SDS011;11238;48.730;11.566;2022-07-03T06:42:11;3.83;;;2.70;;
22144;SDS011;11238;48.730;11.566;2022-07-03T06:44:37;3.33;;;2.88;;
22144;SDS011;11238;48.730;11.566;2022-07-03T06:47:03;3.78;;;2.90;;
22144;SDS011;11238;48.730;11.566;2022-07-03T06:49:31;3.60;;;2.70;;
22144;SDS011;11238;48.730;11.566;2022-07-03T06:51:58;2.80;;;2.55;;
22144;SDS011;11238;48.730;11.566;2022-07-03T06:54:24;4.97;;;2.80;;
22144;SDS011;11238;48.730;11.566;2022-07-03T06:56:50;3.58;;;2.60;;
22144;SDS011;11238;48.730;11.566;2022-07-03T06:59:16;4.63;;;2.60;;
22144;SDS011;11238;48.730;11.566;2022-07-03T07:01:42;2.50;;;2.30;;
22144;SDS011;11238;48.730;11.566;2022-07-03T07:04:08;3.00;;;2.30;;
22144;SDS011;11238;48.730;11.566;2022-07-03T07:06:33;3.22;;;2.92;;
22144;SDS011;11238;48.730;11.566;2022-07-03T07:08:59;3.10;;;2.80;;
22144;SDS011;11238;48.730;11.566;2022-07-03T07:11:25;2.60;;;2.30;;
22144;SDS011;11238;48.730;11.566;2022-07-03T07:13:51;2.72;;;2.47;;
22144;SDS011;11238;48.730;11.566;2022-07-03T07:16:17;2.92;;;2.70;;
22144;SDS011;11238;48.730;11.566;2022-07-03T07:18:43;2.90;;;2.70;;
22144;SDS011;11238;48.730;11.566;2022-07-03T07:21:09;3.85;;;3.15;;
22144;SDS011;11238;48.730;11.566;2022-07-03T07:23:35;3.88;;;2.70;;
22144;SDS011;11238;48.730;11.566;2022-07-03T07:26:01;4.22;;;2.75;;
22144;SDS011;11238;48.730;11.566;2022-07-03T07:28:28;3.05;;;2.50;;
22144;SDS011;11238;48.730;11.566;2022-07-03T07:30:54;2.67;;;2.47;;
22144;SDS011;11238;48.730;11.566;2022-07-03T07:33:21;4.85;;;2.88;;
22144;SDS011;11238;48.730;11.566;2022-07-03T07:35:47;2.95;;;2.42;;
22144;SDS011;11238;48.730;11.566;2022-07-03T07:38:13;3.95;;;2.55;;
22144;SDS011;11238;48.730;11.566;2022-07-03T07:40:39;2.75;;;2.42;;
22144;SDS011;11238;48.730;11.566;2022-07-03T07:43:05;3.70;;;2.28;;
22144;SDS011;11238;48.730;11.566;2022-07-03T07:45:31;4.20;;;2.85;;
22144;SDS011;11238;48.730;11.566;2022-07-03T07:47:56;2.53;;;2.30;;
22144;SDS011;11238;48.730;11.566;2022-07-03T07:50:22;2.90;;;2.30;;
22144;SDS011;11238;48.730;11.566;2022-07-03T07:52:48;2.92;;;2.33;;
22144;SDS011;11238;48.730;11.566;2022-07-03T07:55:14;2.53;;;2.33;;
22144;SDS011;11238;48.730;11.566;2022-07-03T07:57:40;2.67;;;2.40;;
22144;SDS011;11238;48.730;11.566;2022-07-03T08:00:11;4.57;;;2.47;;
22144;SDS011;11238;48.730;11.566;2022-07-03T08:02:38;3.50;;;2.42;;
22144;SDS011;11238;48.730;11.566;2022-07-03T08:05:23;5.40;;;2.47;;
22144;SDS011;11238;48.730;11.566;2022-07-03T08:08:01;2.85;;;2.25;;
22144;SDS011;11238;48.730;11.566;2022-07-03T08:10:26;5.53;;;2.17;;
22144;SDS011;11238;48.730;11.566;2022-07-03T08:12:52;2.85;;;2.47;;
22144;SDS011;11238;48.730;11.566;2022-07-03T08:15:18;2.80;;;2.45;;
22144;SDS011;11238;48.730;11.566;2022-07-03T08:17:44;5.38;;;2.50;;
22144;SDS011;11238;48.730;11.566;2022-07-03T08:20:10;3.33;;;2.40;;
22144;SDS011;11238;48.730;11.566;2022-07-03T08:22:35;3.58;;;2.63;;
22144;SDS011;11238;48.730;11.566;2022-07-03T08:25:01;3.45;;;2.47;;
22144;SDS011;11238;48.730;11.566;2022-07-03T08:27:28;2.72;;;2.10;;
22144;SDS011;11238;48.730;11.566;2022-07-03T08:29:54;2.47;;;2.00;;
22144;SDS011;11238;48.730;11.566;2022-07-03T08:32:19;3.60;;;2.20;;
22144;SDS011;11238;48.730;11.566;2022-07-03T08:34:45;5.70;;;1.95;;
22144;SDS011;11238;48.730;11.566;2022-07-03T08:37:11;2.00;;;1.67;;
22144;SDS011;11238;48.730;11.566;2022-07-03T08:39:37;2.45;;;1.80;;
22144;SDS011;11238;48.730;11.566;2022-07-03T08:42:04;2.00;;;1.75;;
22144;SDS011;11238;48.730;11.566;2022-07-03T08:44:30;6.57;;;1.88;;
22144;SDS011;11238;48.730;11.566;2022-07-03T08:46:57;2.60;;;2.08;;
22144;SDS011;11238;48.730;11.566;2022-07-03T08:49:26;1.75;;;1.60;;
22144;SDS011;11238;48.730;11.566;2022-07-03T08:51:52;1.75;;;1.65;;
22144;SDS011;11238;48.730;11.566;2022-07-03T08:54:19;2.38;;;1.67;;
22144;SDS011;11238;48.730;11.566;2022-07-03T08:56:45;4.88;;;1.90;;
22144;SDS011;11238;48.730;11.566;2022-07-03T08:59:12;2.80;;;1.73;;
22144;SDS011;11238;48.730;11.566;2022-07-03T09:01:38;1.70;;;1.52;;
22144;SDS011;11238;48.730;11.566;2022-07-03T09:04:11;2.00;;;1.40;;
22144;SDS011;11238;48.730;11.566;2022-07-03T09:06:39;3.05;;;1.50;;
22144;SDS011;11238;48.730;11.566;2022-07-03T09:09:07;2.13;;;1.70;;
22144;SDS011;11238;48.730;11.566;2022-07-03T09:11:34;2.58;;;1.48;;
22144;SDS011;11238;48.730;11.566;2022-07-03T09:14:02;3.35;;;1.50;;
22144;SDS011;11238;48.730;11.566;2022-07-03T09:16:35;3.03;;;1.60;;
22144;SDS011;11238;48.730;11.566;2022-07-03T09:19:02;2.20;;;1.55;;
22144;SDS011;11238;48.730;11.566;2022-07-03T09:21:36;3.05;;;1.30;;
22144;SDS011;11238;48.730;11.566;2022-07-03T09:24:03;2.15;;;1.30;;
22144;SDS011;11238;48.730;11.566;2022-07-03T09:26:31;2.63;;;1.25;;
22144;SDS011;11238;48.730;11.566;2022-07-03T09:28:58;2.53;;;1.40;;
22144;SDS011;11238;48.730;11.566;2022-07-03T09:31:28;2.22;;;1.50;;
22144;SDS011;11238;48.730;11.566;2022-07-03T09:33:58;1.75;;;1.38;;
22144;SDS011;11238;48.730;11.566;2022-07-03T09:36:43;1.98;;;1.30;;
22144;SDS011;11238;48.730;11.566;2022-07-03T09:39:18;2.58;;;1.52;;
22144;SDS011;11238;48.730;11.566;2022-07-03T09:44:41;2.63;;;1.20;;
22144;SDS011;11238;48.730;11.566;2022-07-03T09:47:14;1.77;;;1.20;;
22144;SDS011;11238;48.730;11.566;2022-07-03T09:49:59;1.90;;;1.33;;
22144;SDS011;11238;48.730;11.566;2022-07-03T09:54:55;2.15;;;1.33;;
22144;SDS011;11238;48.730;11.566;2022-07-03T09:57:22;1.42;;;1.08;;
22144;SDS011;11238;48.730;11.566;2022-07-03T09:59:49;2.13;;;1.30;;
22144;SDS011;11238;48.730;11.566;2022-07-03T10:02:15;1.67;;;1.30;;
22144;SDS011;11238;48.730;11.566;2022-07-03T10:04:40;4.78;;;1.08;;
22144;SDS011;11238;48.730;11.566;2022-07-03T10:07:06;1.88;;;1.02;;
22144;SDS011;11238;48.730;11.566;2022-07-03T10:09:33;1.23;;;1.10;;
22144;SDS011;11238;48.730;11.566;2022-07-03T10:12:00;1.58;;;1.27;;
22144;SDS011;11238;48.730;11.566;2022-07-03T10:14:31;2.17;;;1.00;;
22144;SDS011;11238;48.730;11.566;2022-07-03T10:16:58;1.23;;;0.88;;
22144;SDS011;11238;48.730;11.566;2022-07-03T10:19:27;3.33;;;0.95;;
22144;SDS011;11238;48.730;11.566;2022-07-03T10:24:26;1.58;;;1.00;;
22144;SDS011;11238;48.730;11.566;2022-07-03T10:26:54;1.52;;;0.90;;
22144;SDS011;11238;48.730;11.566;2022-07-03T10:29:21;1.02;;;0.98;;
22144;SDS011;11238;48.730;11.566;2022-07-03T10:31:50;1.90;;;1.05;;
22144;SDS011;11238;48.730;11.566;2022-07-03T10:34:17;2.45;;;0.85;;
22144;SDS011;11238;48.730;11.566;2022-07-03T10:36:44;2.08;;;1.02;;
22144;SDS011;11238;48.730;11.566;2022-07-03T10:39:33;1.20;;;1.00;;
22144;SDS011;11238;48.730;11.566;2022-07-03T10:42:29;1.00;;;0.90;;
22144;SDS011;11238;48.730;11.566;2022-07-03T10:45:17;1.52;;;1.10;;
22144;SDS011;11238;48.730;11.566;2022-07-03T10:47:44;2.92;;;0.80;;
22144;SDS011;11238;48.730;11.566;2022-07-03T10:50:13;1.70;;;0.90;;
22144;SDS011;11238;48.730;11.566;2022-07-03T10:52:43;5.53;;;0.85;;
22144;SDS011;11238;48.730;11.566;2022-07-03T10:55:11;2.70;;;0.75;;
22144;SDS011;11238;48.730;11.566;2022-07-03T10:57:40;4.75;;;0.80;;
22144;SDS011;11238;48.730;11.566;2022-07-03T11:02:43;1.73;;;0.80;;
22144;SDS011;11238;48.730;11.566;2022-07-03T11:05:15;1.10;;;0.80;;
22144;SDS011;11238;48.730;11.566;2022-07-03T11:10:29;1.95;;;0.90;;
22144;SDS011;11238;48.730;11.566;2022-07-03T11:20:32;1.10;;;1.00;;
22144;SDS011;11238;48.730;11.566;2022-07-03T11:25:47;0.98;;;0.85;;
22144;SDS011;11238;48.730;11.566;2022-07-03T11:33:50;1.67;;;1.00;;
22144;SDS011;11238;48.730;11.566;2022-07-03T11:41:27;0.95;;;0.80;;
22144;SDS011;11238;48.730;11.566;2022-07-03T11:43:55;1.92;;;0.82;;
22144;SDS011;11238;48.730;11.566;2022-07-03T11:46:29;1.70;;;0.70;;
22144;SDS011;11238;48.730;11.566;2022-07-03T11:49:06;0.75;;;0.70;;
22144;SDS011;11238;48.730;11.566;2022-07-03T11:51:43;1.58;;;0.68;;
22144;SDS011;11238;48.730;11.566;2022-07-03T11:54:19;1.02;;;0.70;;
22144;SDS011;11238;48.730;11.566;2022-07-03T11:56:45;0.57;;;0.55;;
22144;SDS011;11238;48.730;11.566;2022-07-03T11:59:10;1.45;;;0.60;;
22144;SDS011;11238;48.730;11.566;2022-07-03T12:01:37;0.50;;;0.50;;
22144;SDS011;11238;48.730;11.566;2022-07-03T12:04:07;0.63;;;0.50;;
22144;SDS011;11238;48.730;11.566;2022-07-03T12:06:37;0.50;;;0.50;;
22144;SDS011;11238;48.730;11.566;2022-07-03T12:11:53;1.48;;;0.40;;
22144;SDS011;11238;48.730;11.566;2022-07-03T12:17:12;2.47;;;0.55;;
22144;SDS011;11238;48.730;11.566;2022-07-03T12:19:53;3.80;;;0.57;;
22144;SDS011;11238;48.730;11.566;2022-07-03T12:22:21;0.73;;;0.47;;
22144;SDS011;11238;48.730;11.566;2022-07-03T12:27:44;2.38;;;0.50;;
22144;SDS011;11238;48.730;11.566;2022-07-03T12:30:18;2.17;;;0.47;;
22144;SDS011;11238;48.730;11.566;2022-07-03T12:32:45;0.70;;;0.40;;
22144;SDS011;11238;48.730;11.566;2022-07-03T12:35:11;3.08;;;0.60;;
22144;SDS011;11238;48.730;11.566;2022-07-03T12:37:41;0.60;;;0.40;;
22144;SDS011;11238;48.730;11.566;2022-07-03T12:40:10;0.83;;;0.67;;
22144;SDS011;11238;48.730;11.566;2022-07-03T12:42:43;2.53;;;0.50;;
22144;SDS011;11238;48.730;11.566;2022-07-03T12:45:14;1.35;;;0.60;;
22144;SDS011;11238;48.730;11.566;2022-07-03T12:47:45;1.75;;;0.60;;
22144;SDS011;11238;48.730;11.566;2022-07-03T12:50:21;2.08;;;0.50;;
22144;SDS011;11238;48.730;11.566;2022-07-03T12:55:24;2.45;;;0.50;;
22144;SDS011;11238;48.730;11.566;2022-07-03T12:58:10;0.70;;;0.52;;
22144;SDS011;11238;48.730;11.566;2022-07-03T13:03:31;0.55;;;0.55;;
22144;SDS011;11238;48.730;11.566;2022-07-03T13:06:00;1.23;;;0.60;;
22144;SDS011;11238;48.730;11.566;2022-07-03T13:08:26;2.35;;;0.70;;
22144;SDS011;11238;48.730;11.566;2022-07-03T13:10:59;0.82;;;0.52;;
22144;SDS011;11238;48.730;11.566;2022-07-03T13:13:25;1.17;;;0.60;;
22144;SDS011;11238;48.730;11.566;2022-07-03T13:15:51;2.25;;;0.60;;
22144;SDS011;11238;48.730;11.566;2022-07-03T13:18:17;0.85;;;0.57;;
22144;SDS011;11238;48.730;11.566;2022-07-03T13:20:43;0.80;;;0.70;;
22144;SDS011;11238;48.730;11.566;2022-07-03T13:23:09;0.55;;;0.50;;
22144;SDS011;11238;48.730;11.566;2022-07-03T13:25:36;1.88;;;0.60;;
22144;SDS011;11238;48.730;11.566;2022-07-03T13:28:05;1.30;;;0.60;;
22144;SDS011;11238;48.730;11.566;2022-07-03T13:30:32;1.33;;;0.70;;
22144;SDS011;11238;48.730;11.566;2022-07-03T13:32:58;1.67;;;0.80;;
22144;SDS011;11238;48.730;11.566;2022-07-03T13:35:23;0.60;;;0.60;;
22144;SDS011;11238;48.730;11.566;2022-07-03T13:37:49;0.98;;;0.70;;
22144;SDS011;11238;48.730;11.566;2022-07-03T13:40:15;1.10;;;0.68;;
22144;SDS011;11238;48.730;11.566;2022-07-03T13:42:41;0.65;;;0.60;;
22144;SDS011;11238;48.730;11.566;2022-07-03T13:45:08;0.60;;;0.57;;
22144;SDS011;11238;48.730;11.566;2022-07-03T13:47:35;2.03;;;0.50;;
22144;SDS011;11238;48.730;11.566;2022-07-03T13:50:02;1.63;;;0.52;;
22144;SDS011;11238;48.730;11.566;2022-07-03T13:52:28;1.40;;;0.52;;
22144;SDS011;11238;48.730;11.566;2022-07-03T13:54:54;1.75;;;0.65;;
22144;SDS011;11238;48.730;11.566;2022-07-03T13:57:20;0.82;;;0.80;;
22144;SDS011;11238;48.730;11.566;2022-07-03T13:59:46;2.45;;;0.60;;
22144;SDS011;11238;48.730;11.566;2022-07-03T14:02:12;3.03;;;0.63;;
22144;SDS011;11238;48.730;11.566;2022-07-03T14:04:38;1.70;;;0.60;;
22144;SDS011;11238;48.730;11.566;2022-07-03T14:07:04;1.50;;;0.60;;
22144;SDS011;11238;48.730;11.566;2022-07-03T14:09:30;1.52;;;0.70;;
22144;SDS011;11238;48.730;11.566;2022-07-03T14:11:55;2.22;;;0.75;;
22144;SDS011;11238;48.730;11.566;2022-07-03T14:14:22;1.45;;;0.80;;
22144;SDS011;11238;48.730;11.566;2022-07-03T14:16:47;0.60;;;0.60;;
22144;SDS011;11238;48.730;11.566;2022-07-03T14:19:13;1.90;;;0.70;;
22144;SDS011;11238;48.730;11.566;2022-07-03T14:21:39;0.50;;;0.50;;
22144;SDS011;11238;48.730;11.566;2022-07-03T14:24:04;1.67;;;0.80;;
22144;SDS011;11238;48.730;11.566;2022-07-03T14:26:30;2.50;;;0.70;;
22144;SDS011;11238;48.730;11.566;2022-07-03T14:29:14;2.05;;;0.60;;
22144;SDS011;11238;48.730;11.566;2022-07-03T14:31:59;0.60;;;0.50;;
22144;SDS011;11238;48.730;11.566;2022-07-03T14:34:43;1.50;;;0.50;;
22144;SDS011;11238;48.730;11.566;2022-07-03T14:37:09;0.80;;;0.68;;
22144;SDS011;11238;48.730;11.566;2022-07-03T14:39:35;2.85;;;0.80;;
22144;SDS011;11238;48.730;11.566;2022-07-03T14:42:01;3.03;;;0.70;;
22144;SDS011;11238;48.730;11.566;2022-07-03T14:44:28;1.88;;;0.60;;
22144;SDS011;11238;48.730;11.566;2022-07-03T14:46:54;0.80;;;0.60;;
22144;SDS011;11238;48.730;11.566;2022-07-03T14:49:21;0.90;;;0.60;;
22144;SDS011;11238;48.730;11.566;2022-07-03T14:51:46;1.27;;;0.63;;
22144;SDS011;11238;48.730;11.566;2022-07-03T14:54:19;3.05;;;0.52;;
22144;SDS011;11238;48.730;11.566;2022-07-03T14:56:47;1.02;;;0.73;;
22144;SDS011;11238;48.730;11.566;2022-07-03T14:59:19;0.95;;;0.52;;
22144;SDS011;11238;48.730;11.566;2022-07-03T15:02:09;0.90;;;0.60;;
22144;SDS011;11238;48.730;11.566;2022-07-03T15:07:30;1.58;;;0.75;;
22144;SDS011;11238;48.730;11.566;2022-07-03T15:10:09;2.20;;;0.50;;
22144;SDS011;11238;48.730;11.566;2022-07-03T15:12:40;1.33;;;0.70;;
22144;SDS011;11238;48.730;11.566;2022-07-03T15:15:10;2.28;;;0.65;;
22144;SDS011;11238;48.730;11.566;2022-07-03T15:17:38;4.15;;;0.68;;
22144;SDS011;11238;48.730;11.566;2022-07-03T15:20:06;0.85;;;0.70;;
22144;SDS011;11238;48.730;11.566;2022-07-03T15:22:43;0.98;;;0.57;;
22144;SDS011;11238;48.730;11.566;2022-07-03T15:25:11;0.90;;;0.60;;
22144;SDS011;11238;48.730;11.566;2022-07-03T15:27:38;3.92;;;0.63;;
22144;SDS011;11238;48.730;11.566;2022-07-03T15:30:05;3.97;;;0.70;;
22144;SDS011;11238;48.730;11.566;2022-07-03T15:32:36;2.47;;;0.57;;
22144;SDS011;11238;48.730;11.566;2022-07-03T15:35:03;0.60;;;0.60;;
22144;SDS011;11238;48.730;11.566;2022-07-03T15:37:35;0.80;;;0.60;;
22144;SDS011;11238;48.730;11.566;2022-07-03T15:40:25;1.02;;;0.60;;
22144;SDS011;11238;48.730;11.566;2022-07-03T15:51:24;2.25;;;0.60;;
22144;SDS011;11238;48.730;11.566;2022-07-03T15:53:58;3.42;;;0.73;;
22144;SDS011;11238;48.730;11.566;2022-07-03T15:56:35;3.53;;;0.70;;
22144;SDS011;11238;48.730;11.566;2022-07-03T15:59:03;2.97;;;0.90;;
22144;SDS011;11238;48.730;11.566;2022-07-03T16:01:33;1.48;;;0.77;;
22144;SDS011;11238;48.730;11.566;2022-07-03T16:07:28;1.23;;;0.73;;
22144;SDS011;11238;48.730;11.566;2022-07-03T16:09:59;1.15;;;0.73;;
22144;SDS011;11238;48.730;11.566;2022-07-03T16:12:26;1.40;;;0.77;;
22144;SDS011;11238;48.730;11.566;2022-07-03T16:14:53;1.55;;;0.70;;
22144;SDS011;11238;48.730;11.566;2022-07-03T16:17:20;2.63;;;0.95;;
22144;SDS011;11238;48.730;11.566;2022-07-03T16:19:47;4.57;;;0.80;;
22144;SDS011;11238;48.730;11.566;2022-07-03T16:22:15;3.17;;;0.80;;
22144;SDS011;11238;48.730;11.566;2022-07-03T16:24:42;1.85;;;0.70;;
22144;SDS011;11238;48.730;11.566;2022-07-03T16:27:11;2.15;;;0.65;;